createdAt,value
2019-01-03T00:00:28.039Z,1.23
2019-01-03T00:01:43.179Z,1.20
2019-01-03T00:03:02.593Z,1.10
2019-01-03T00:04:21.982Z,1.40
2019-01-03T00:05:30.694Z,1.20
2019-01-03T00:06:50.434Z,2.75
2019-01-03T00:07:55.987Z,1.37
2019-01-03T00:08:59.001Z,1.37
2019-01-03T00:10:02.035Z,1.25
2019-01-03T00:11:05.053Z,1.77
2019-01-03T00:12:20.119Z,0.90
2019-01-03T00:13:39.856Z,1.20
2019-01-03T00:14:54.718Z,1.53
2019-01-03T00:16:09.576Z,1.90
2019-01-03T00:17:15.596Z,1.12
2019-01-03T00:18:18.612Z,1.27
2019-01-03T00:19:24.461Z,2.30
2019-01-03T00:20:36.449Z,1.30
2019-01-03T00:21:39.466Z,1.20
2019-01-03T00:22:54.176Z,1.73
2019-01-03T00:24:14.327Z,1.23
2019-01-03T00:25:33.982Z,1.40
2019-01-03T00:26:53.684Z,0.73
2019-01-03T00:28:11.643Z,1.00
2019-01-03T00:29:23.544Z,1.23
2019-01-03T00:30:41.733Z,0.98
2019-01-03T00:31:47.440Z,2.10
2019-01-03T00:32:59.461Z,2.50
2019-01-03T00:34:05.115Z,0.80
2019-01-03T00:35:23.316Z,1.67
2019-01-03T00:36:41.433Z,1.73
2019-01-03T00:37:53.622Z,1.27
2019-01-03T00:38:56.643Z,0.87
2019-01-03T00:40:05.285Z,1.47
2019-01-03T00:41:11.274Z,1.00
2019-01-03T00:42:29.476Z,2.00
2019-01-03T00:43:32.496Z,1.17
2019-01-03T00:44:44.092Z,0.90
2019-01-03T00:45:47.236Z,0.80
2019-01-03T00:46:56.012Z,1.70
2019-01-03T00:48:07.859Z,1.00
2019-01-03T00:49:10.872Z,1.77
2019-01-03T00:50:31.803Z,1.00
2019-01-03T00:51:46.932Z,0.90
2019-01-03T00:52:52.763Z,1.20
2019-01-03T00:53:55.785Z,0.95
2019-01-03T00:55:01.733Z,0.90
2019-01-03T00:56:20.295Z,0.80
2019-01-03T00:57:26.128Z,1.40
2019-01-03T00:58:47.638Z,0.80
2019-01-03T01:00:07.038Z,1.00
2019-01-03T01:01:10.059Z,0.93
2019-01-03T01:02:18.892Z,1.35
2019-01-03T01:03:27.476Z,0.80
2019-01-03T01:04:30.510Z,0.80
2019-01-03T01:05:48.721Z,0.83
2019-01-03T01:07:00.773Z,1.67
2019-01-03T01:08:03.798Z,0.80
2019-01-03T01:09:25.331Z,0.90
2019-01-03T01:10:45.144Z,1.50
2019-01-03T01:12:04.473Z,0.77
2019-01-03T01:13:23.836Z,0.62
2019-01-03T01:14:44.809Z,0.77
2019-01-03T01:15:47.820Z,3.47
2019-01-03T01:16:53.522Z,0.70
2019-01-03T01:17:56.549Z,0.80
2019-01-03T01:18:59.569Z,1.20
2019-01-03T01:20:05.360Z,1.23
2019-01-03T01:21:08.385Z,0.57
2019-01-03T01:22:17.208Z,0.70
2019-01-03T01:23:37.087Z,0.70
2019-01-03T01:24:40.108Z,0.90
2019-01-03T01:25:43.134Z,0.85
2019-01-03T01:26:58.116Z,0.50
2019-01-03T01:28:04.145Z,1.07
2019-01-03T01:29:23.707Z,0.98
2019-01-03T01:30:29.752Z,1.00
2019-01-03T01:31:41.447Z,0.97
2019-01-03T01:32:47.277Z,0.97
2019-01-03T01:34:02.315Z,0.70
2019-01-03T01:35:11.287Z,0.70
2019-01-03T01:36:29.476Z,1.42
2019-01-03T01:37:44.295Z,0.98
2019-01-03T01:39:04.035Z,0.90
2019-01-03T01:40:21.862Z,0.67
2019-01-03T01:41:27.684Z,0.63
2019-01-03T01:42:48.881Z,1.30
2019-01-03T01:43:51.912Z,0.60
2019-01-03T01:45:11.543Z,0.85
2019-01-03T01:46:17.389Z,1.00
2019-01-03T01:47:20.410Z,0.80
2019-01-03T01:48:39.999Z,0.60
2019-01-03T01:49:55.028Z,1.40
2019-01-03T01:51:14.921Z,0.80
2019-01-03T01:52:17.941Z,0.40
2019-01-03T01:53:39.151Z,0.70
2019-01-03T01:54:54.236Z,0.98
2019-01-03T01:56:13.604Z,1.23
2019-01-03T01:57:19.120Z,0.77
2019-01-03T01:58:31.108Z,1.00
2019-01-03T01:59:43.172Z,0.70
2019-01-03T02:00:46.215Z,0.70
2019-01-03T02:01:49.233Z,0.83
2019-01-03T02:03:10.480Z,1.95
2019-01-03T02:04:13.512Z,0.40
2019-01-03T02:05:16.531Z,0.30
2019-01-03T02:06:19.552Z,0.50
2019-01-03T02:07:22.569Z,0.67
2019-01-03T02:08:25.594Z,0.60
2019-01-03T02:09:45.411Z,0.53
2019-01-03T02:10:48.433Z,0.73
2019-01-03T02:12:08.068Z,0.80
2019-01-03T02:13:13.614Z,0.60
2019-01-03T02:14:16.640Z,0.78
2019-01-03T02:15:31.528Z,0.68
2019-01-03T02:16:40.379Z,1.12
2019-01-03T02:17:43.402Z,0.50
2019-01-03T02:18:49.297Z,1.23
2019-01-03T02:20:01.048Z,0.82
2019-01-03T02:21:20.684Z,1.27
2019-01-03T02:22:23.700Z,0.83
2019-01-03T02:23:43.348Z,0.53
2019-01-03T02:24:55.313Z,0.83
2019-01-03T02:26:00.867Z,0.78
2019-01-03T02:27:16.116Z,0.50
2019-01-03T02:28:34.333Z,0.70
2019-01-03T02:29:52.216Z,0.78
2019-01-03T02:31:11.649Z,0.40
2019-01-03T02:32:23.576Z,0.57
2019-01-03T02:33:43.339Z,0.78
2019-01-03T02:34:58.055Z,1.10
2019-01-03T02:36:16.357Z,0.60
2019-01-03T02:37:25.300Z,1.33
2019-01-03T02:38:28.322Z,0.98
2019-01-03T02:39:47.753Z,0.87
2019-01-03T02:41:02.704Z,0.50
2019-01-03T02:42:08.263Z,1.57
2019-01-03T02:43:23.429Z,0.77
2019-01-03T02:44:29.225Z,1.20
2019-01-03T02:45:32.263Z,1.03
2019-01-03T02:46:51.964Z,0.77
2019-01-03T02:47:57.488Z,1.30
2019-01-03T02:49:03.787Z,0.50
2019-01-03T02:50:06.802Z,0.70
2019-01-03T02:51:21.510Z,0.43
2019-01-03T02:52:27.577Z,1.27
2019-01-03T02:53:42.315Z,0.90
2019-01-03T02:54:45.329Z,0.70
2019-01-03T02:55:51.417Z,0.47
2019-01-03T02:56:54.608Z,0.83
2019-01-03T02:58:12.572Z,0.40
2019-01-03T02:59:31.942Z,0.70
2019-01-03T03:00:51.289Z,1.03
2019-01-03T03:02:11.191Z,0.60
2019-01-03T03:03:16.720Z,0.70
2019-01-03T03:04:36.124Z,1.10
2019-01-03T03:05:47.973Z,0.70
2019-01-03T03:07:02.852Z,0.77
2019-01-03T03:08:08.417Z,0.60
2019-01-03T03:09:11.436Z,1.00
2019-01-03T03:10:26.306Z,0.70
2019-01-03T03:11:41.005Z,0.93
2019-01-03T03:12:52.761Z,0.90
2019-01-03T03:14:10.921Z,0.60
2019-01-03T03:15:13.945Z,1.07
2019-01-03T03:16:33.456Z,0.80
2019-01-03T03:17:45.792Z,0.67
2019-01-03T03:18:51.345Z,1.07
2019-01-03T03:19:54.365Z,0.55
2019-01-03T03:21:06.213Z,0.80
2019-01-03T03:22:25.561Z,1.03
2019-01-03T03:23:31.095Z,0.85
2019-01-03T03:24:49.080Z,1.13
2019-01-03T03:25:52.103Z,1.63
2019-01-03T03:27:10.022Z,1.10
2019-01-03T03:28:27.990Z,1.17
2019-01-03T03:29:47.775Z,1.57
2019-01-03T03:30:59.770Z,1.70
2019-01-03T03:32:11.685Z,1.03
2019-01-03T03:33:17.359Z,0.75
2019-01-03T03:34:26.759Z,1.30
2019-01-03T03:35:35.584Z,1.17
2019-01-03T03:36:44.658Z,1.00
2019-01-03T03:37:56.475Z,1.47
2019-01-03T03:39:16.269Z,1.52
2019-01-03T03:40:22.003Z,1.43
2019-01-03T03:41:41.984Z,1.40
2019-01-03T03:42:45.004Z,1.42
2019-01-03T03:43:56.937Z,1.10
2019-01-03T03:45:02.973Z,1.67
2019-01-03T03:46:17.685Z,1.42
2019-01-03T03:47:38.865Z,0.53
2019-01-03T03:48:56.737Z,0.75
2019-01-03T03:50:02.843Z,1.90
2019-01-03T03:51:05.890Z,2.77
2019-01-03T03:52:17.693Z,1.87
2019-01-03T03:53:20.806Z,1.47
2019-01-03T03:54:26.461Z,1.43
2019-01-03T03:55:35.095Z,2.30
2019-01-03T03:56:40.940Z,1.70
2019-01-03T03:57:52.737Z,1.70
2019-01-03T03:59:12.120Z,0.70
2019-01-03T04:00:31.519Z,0.97
2019-01-03T04:01:34.542Z,2.20
2019-01-03T04:02:40.084Z,0.90
2019-01-03T04:03:57.995Z,1.37
2019-01-03T04:05:17.596Z,1.70
2019-01-03T04:06:20.615Z,1.07
2019-01-03T04:07:38.764Z,1.13
2019-01-03T04:08:59.976Z,1.23
2019-01-03T04:10:08.912Z,0.93
2019-01-03T04:11:28.454Z,1.00
2019-01-03T04:12:49.750Z,1.00
2019-01-03T04:13:58.989Z,1.65
2019-01-03T04:15:04.726Z,1.50
2019-01-03T04:16:10.507Z,0.93
2019-01-03T04:17:13.527Z,1.30
2019-01-03T04:18:33.003Z,0.78
2019-01-03T04:19:38.579Z,0.87
2019-01-03T04:20:41.623Z,1.82
2019-01-03T04:21:44.630Z,1.57
2019-01-03T04:22:56.625Z,1.60
2019-01-03T04:23:59.603Z,1.10
2019-01-03T04:25:05.237Z,0.60
2019-01-03T04:26:08.276Z,1.40
2019-01-03T04:27:11.294Z,0.57
2019-01-03T04:28:20.067Z,0.80
2019-01-03T04:29:23.083Z,0.90
2019-01-03T04:30:42.716Z,0.90
2019-01-03T04:32:02.202Z,0.70
2019-01-03T04:33:14.097Z,1.37
2019-01-03T04:34:29.020Z,1.07
2019-01-03T04:35:35.515Z,1.83
2019-01-03T04:36:47.296Z,1.47
2019-01-03T04:38:07.610Z,1.53
2019-01-03T04:39:10.617Z,0.87
2019-01-03T04:40:31.978Z,1.37
2019-01-03T04:41:34.999Z,0.78
2019-01-03T04:42:50.245Z,0.93
2019-01-03T04:43:56.209Z,1.17
2019-01-03T04:45:08.155Z,0.60
2019-01-03T04:46:17.285Z,1.07
2019-01-03T04:47:37.092Z,1.67
2019-01-03T04:48:42.664Z,1.17
2019-01-03T04:50:02.289Z,0.75
2019-01-03T04:51:05.312Z,1.10
2019-01-03T04:52:26.504Z,2.25
2019-01-03T04:53:38.547Z,0.73
2019-01-03T04:54:58.042Z,1.15
2019-01-03T04:56:06.740Z,0.80
2019-01-03T04:57:09.751Z,0.90
2019-01-03T04:58:15.300Z,1.30
2019-01-03T04:59:20.853Z,1.22
2019-01-03T05:00:25.568Z,0.70
2019-01-03T05:01:52.328Z,0.72
2019-01-03T05:03:04.246Z,0.50
2019-01-03T05:04:07.273Z,0.82
2019-01-03T05:05:26.778Z,1.25
2019-01-03T05:06:30.143Z,0.62
2019-01-03T05:07:42.105Z,0.55
2019-01-03T05:08:45.128Z,0.90
2019-01-03T05:10:04.512Z,1.50
2019-01-03T05:11:07.529Z,1.72
2019-01-03T05:12:13.061Z,0.90
2019-01-03T05:13:18.759Z,0.50
2019-01-03T05:14:38.041Z,0.93
2019-01-03T05:15:43.590Z,0.60
2019-01-03T05:16:55.243Z,0.35
2019-01-03T05:18:04.366Z,1.27
2019-01-03T05:19:22.807Z,1.07
2019-01-03T05:20:34.724Z,0.87
2019-01-03T05:21:37.763Z,0.70
2019-01-03T05:22:40.773Z,0.63
2019-01-03T05:24:00.397Z,1.25
2019-01-03T05:25:21.321Z,0.60
2019-01-03T05:26:40.769Z,1.25
2019-01-03T05:27:43.784Z,0.93
2019-01-03T05:29:03.224Z,0.50
2019-01-03T05:30:25.453Z,0.95
2019-01-03T05:31:40.356Z,0.70
2019-01-03T05:32:59.725Z,0.93
2019-01-03T05:34:19.080Z,0.85
2019-01-03T05:35:24.617Z,0.60
2019-01-03T05:36:27.638Z,1.07
2019-01-03T05:37:46.163Z,0.82
2019-01-03T05:38:49.184Z,0.75
2019-01-03T05:39:58.027Z,0.80
2019-01-03T05:41:17.750Z,0.50
2019-01-03T05:42:20.772Z,0.62
2019-01-03T05:43:35.864Z,0.70
2019-01-03T05:44:47.720Z,0.50
2019-01-03T05:45:56.804Z,0.80
2019-01-03T05:47:05.677Z,0.50
2019-01-03T05:48:25.271Z,0.50
2019-01-03T05:49:44.777Z,0.93
2019-01-03T05:51:04.409Z,0.72
2019-01-03T05:52:24.278Z,0.50
2019-01-03T05:53:29.809Z,0.87
2019-01-03T05:54:32.878Z,0.70
2019-01-03T05:55:41.640Z,0.57
2019-01-03T05:56:53.546Z,1.07
2019-01-03T05:58:08.630Z,0.87
2019-01-03T05:59:11.645Z,0.50
2019-01-03T06:00:31.343Z,0.70
2019-01-03T06:01:34.349Z,0.70
2019-01-03T06:02:54.160Z,0.50
2019-01-03T06:04:09.032Z,0.70
2019-01-03T06:05:12.064Z,0.57
2019-01-03T06:06:31.826Z,0.67
2019-01-03T06:07:40.429Z,0.43
2019-01-03T06:09:00.289Z,0.40
2019-01-03T06:10:03.688Z,0.60
2019-01-03T06:11:12.409Z,0.70
2019-01-03T06:12:32.058Z,0.50
2019-01-03T06:13:35.077Z,0.40
2019-01-03T06:14:52.918Z,0.70
2019-01-03T06:15:55.956Z,0.50
2019-01-03T06:17:17.409Z,0.70
2019-01-03T06:18:32.559Z,1.03
2019-01-03T06:19:35.577Z,0.70
2019-01-03T06:20:47.649Z,1.00
2019-01-03T06:22:05.657Z,0.73
2019-01-03T06:23:08.673Z,1.15
2019-01-03T06:24:11.687Z,0.70
2019-01-03T06:25:17.489Z,0.70
2019-01-03T06:26:26.033Z,1.07
2019-01-03T06:27:38.595Z,0.75
2019-01-03T06:28:56.721Z,1.25
2019-01-03T06:30:16.263Z,0.82
2019-01-03T06:31:31.434Z,0.60
2019-01-03T06:32:46.960Z,0.50
2019-01-03T06:34:04.612Z,0.75
2019-01-03T06:35:07.626Z,0.85
2019-01-03T06:36:10.644Z,0.53
2019-01-03T06:37:30.332Z,0.78
2019-01-03T06:38:38.895Z,0.55
2019-01-03T06:39:41.904Z,0.40
2019-01-03T06:40:47.905Z,1.32
2019-01-03T06:42:09.242Z,0.98
2019-01-03T06:43:17.800Z,0.70
2019-01-03T06:44:26.737Z,0.60
2019-01-03T06:45:46.278Z,0.50
2019-01-03T06:46:51.853Z,1.10
2019-01-03T06:48:00.422Z,0.57
2019-01-03T06:49:15.476Z,0.75
2019-01-03T06:50:33.671Z,0.60
2019-01-03T06:51:53.406Z,0.97
2019-01-03T06:53:12.727Z,0.68
2019-01-03T06:54:32.156Z,1.23
2019-01-03T06:55:35.177Z,0.40
2019-01-03T06:56:55.013Z,0.80
2019-01-03T06:58:12.957Z,0.80
2019-01-03T06:59:19.051Z,0.50
2019-01-03T07:00:28.215Z,0.65
2019-01-03T07:01:33.769Z,0.93
2019-01-03T07:02:39.668Z,0.80
2019-01-03T07:03:45.586Z,0.82
2019-01-03T07:05:03.733Z,0.62
2019-01-03T07:06:23.369Z,0.40
2019-01-03T07:07:29.223Z,0.40
2019-01-03T07:08:47.349Z,1.42
2019-01-03T07:09:56.063Z,0.50
2019-01-03T07:11:22.079Z,1.00
2019-01-03T07:12:37.592Z,0.85
2019-01-03T07:13:58.857Z,1.27
2019-01-03T07:15:04.396Z,0.82
2019-01-03T07:16:13.346Z,0.60
2019-01-03T07:17:16.368Z,0.65
2019-01-03T07:18:27.959Z,0.43
2019-01-03T07:19:47.556Z,0.67
2019-01-03T07:21:07.125Z,0.40
2019-01-03T07:22:26.605Z,0.60
2019-01-03T07:23:29.616Z,1.63
2019-01-03T07:24:32.633Z,0.87
2019-01-03T07:25:35.661Z,0.60
2019-01-03T07:26:55.636Z,0.80
2019-01-03T07:28:15.021Z,0.60
2019-01-03T07:29:34.363Z,0.60
2019-01-03T07:30:37.377Z,0.85
2019-01-03T07:31:42.907Z,1.43
2019-01-03T07:32:45.936Z,0.40
2019-01-03T07:34:05.348Z,0.72
2019-01-03T07:35:08.359Z,0.80
2019-01-03T07:36:27.743Z,0.70
2019-01-03T07:37:47.184Z,0.68
2019-01-03T07:39:07.192Z,0.82
2019-01-03T07:40:12.827Z,0.60
2019-01-03T07:41:21.403Z,0.68
2019-01-03T07:42:33.725Z,0.70
2019-01-03T07:43:45.870Z,0.40
2019-01-03T07:44:58.046Z,1.07
2019-01-03T07:46:01.065Z,1.15
2019-01-03T07:47:06.876Z,1.02
2019-01-03T07:48:26.399Z,0.77
2019-01-03T07:49:35.448Z,0.68
2019-01-03T07:50:38.481Z,0.90
2019-01-03T07:51:41.501Z,0.70
2019-01-03T07:52:44.531Z,0.83
2019-01-03T07:53:50.059Z,0.72
2019-01-03T07:54:53.077Z,0.60
2019-01-03T07:56:12.685Z,1.40
2019-01-03T07:57:21.396Z,0.45
2019-01-03T07:58:27.509Z,0.50
2019-01-03T07:59:42.233Z,0.90
2019-01-03T08:00:51.577Z,0.60
2019-01-03T08:02:11.237Z,0.85
2019-01-03T08:03:30.668Z,0.50
2019-01-03T08:04:42.541Z,0.60
2019-01-03T08:06:03.796Z,0.70
2019-01-03T08:07:18.680Z,0.55
2019-01-03T08:08:39.555Z,1.20
2019-01-03T08:09:42.567Z,0.62
2019-01-03T08:11:01.991Z,1.65
2019-01-03T08:12:14.424Z,1.00
2019-01-03T08:13:17.443Z,1.30
2019-01-03T08:14:32.232Z,0.77
2019-01-03T08:15:35.244Z,0.82
2019-01-03T08:16:55.052Z,0.75
2019-01-03T08:18:06.693Z,0.75
2019-01-03T08:19:27.860Z,0.82
2019-01-03T08:20:33.836Z,0.60
2019-01-03T08:21:55.189Z,0.95
2019-01-03T08:22:58.208Z,0.50
2019-01-03T08:24:06.792Z,1.75
2019-01-03T08:25:26.686Z,0.50
2019-01-03T08:26:38.832Z,2.30
2019-01-03T08:27:59.570Z,3.58
2019-01-03T08:29:08.545Z,6.17
2019-01-03T08:30:11.557Z,1.72
2019-01-03T08:31:26.442Z,3.42
2019-01-03T08:32:35.640Z,0.63
2019-01-03T08:33:38.657Z,2.00
2019-01-03T08:34:50.303Z,0.90
2019-01-03T08:36:11.340Z,1.30
2019-01-03T08:37:20.168Z,0.78
2019-01-03T08:38:39.650Z,1.97
2019-01-03T08:39:42.668Z,2.73
2019-01-03T08:40:54.449Z,1.80
2019-01-03T08:42:12.674Z,4.10
2019-01-03T08:43:27.161Z,9.35
2019-01-03T08:44:44.064Z,2.90
2019-01-03T08:46:05.081Z,4.60
2019-01-03T08:47:26.008Z,1.80
2019-01-03T08:48:45.382Z,3.17
2019-01-03T08:49:57.046Z,2.85
2019-01-03T08:51:16.564Z,4.20
2019-01-03T08:52:37.532Z,3.95
2019-01-03T08:53:40.562Z,4.08
2019-01-03T08:54:59.948Z,3.05
2019-01-03T08:56:19.472Z,2.30
2019-01-03T08:57:37.421Z,2.07
2019-01-03T08:58:49.698Z,2.72
2019-01-03T09:00:09.209Z,2.02
2019-01-03T09:01:12.222Z,1.10
2019-01-03T09:02:15.240Z,2.63
2019-01-03T09:03:33.316Z,3.83
2019-01-03T09:04:52.775Z,3.37
2019-01-03T09:06:07.589Z,2.10
2019-01-03T09:07:10.598Z,1.30
2019-01-03T09:08:19.199Z,1.50
2019-01-03T09:09:24.752Z,2.90
2019-01-03T09:10:36.590Z,2.58
2019-01-03T09:11:57.541Z,2.77
2019-01-03T09:13:17.308Z,1.07
2019-01-03T09:14:20.488Z,1.10
2019-01-03T09:15:26.319Z,0.70
2019-01-03T09:16:47.474Z,0.95
2019-01-03T09:17:56.070Z,3.33
2019-01-03T09:19:15.436Z,2.52
2019-01-03T09:20:36.320Z,3.20
2019-01-03T09:21:42.204Z,1.07
2019-01-03T09:22:51.376Z,1.07
2019-01-03T09:23:54.392Z,1.10
2019-01-03T09:25:06.320Z,1.05
2019-01-03T09:26:12.214Z,1.82
2019-01-03T09:27:18.012Z,1.35
2019-01-03T09:28:37.608Z,1.55
2019-01-03T09:29:56.987Z,1.05
2019-01-03T09:31:14.970Z,1.07
2019-01-03T09:32:29.869Z,1.87
2019-01-03T09:33:51.085Z,1.47
2019-01-03T09:34:56.781Z,1.98
2019-01-03T09:36:02.895Z,1.72
2019-01-03T09:37:26.928Z,1.20
2019-01-03T09:38:30.188Z,2.20
2019-01-03T09:39:49.811Z,1.22
2019-01-03T09:41:09.392Z,1.87
2019-01-03T09:42:27.451Z,0.98
2019-01-03T09:43:33.220Z,1.43
2019-01-03T09:44:43.012Z,1.30
2019-01-03T09:45:44.644Z,1.87
2019-01-03T09:46:45.761Z,1.87
2019-01-03T09:47:46.884Z,1.10
2019-01-03T09:48:47.998Z,1.93
2019-01-03T09:49:49.109Z,1.90
2019-01-03T09:50:50.221Z,0.95
2019-01-03T09:51:51.501Z,2.33
2019-01-03T09:52:52.613Z,1.00
2019-01-03T09:53:53.731Z,1.20
2019-01-03T09:54:54.841Z,1.40
2019-01-03T09:55:56.059Z,1.00
2019-01-03T09:56:57.289Z,1.00
2019-01-03T09:57:58.403Z,2.42
2019-01-03T09:58:59.518Z,1.05
2019-01-03T10:00:00.628Z,1.50
2019-01-03T10:01:01.737Z,1.57
2019-01-03T10:02:02.983Z,1.65
2019-01-03T10:03:04.092Z,1.73
2019-01-03T10:04:05.204Z,0.93
2019-01-03T10:05:06.317Z,1.27
2019-01-03T10:06:07.537Z,2.55
2019-01-03T10:07:08.962Z,1.60
2019-01-03T10:08:10.070Z,1.55
2019-01-03T10:09:11.184Z,1.60
2019-01-03T10:10:12.292Z,2.05
2019-01-03T10:11:13.416Z,2.17
2019-01-03T10:12:14.932Z,1.40
2019-01-03T10:13:16.046Z,1.40
2019-01-03T10:14:17.165Z,1.32
2019-01-03T10:15:18.379Z,1.40
2019-01-03T10:16:20.063Z,1.00
2019-01-03T10:17:21.189Z,2.00
2019-01-03T10:18:22.301Z,2.12
2019-01-03T10:19:23.412Z,1.65
2019-01-03T10:20:24.528Z,1.82
2019-01-03T10:21:25.656Z,1.17
2019-01-03T10:22:26.889Z,1.40
2019-01-03T10:23:28.001Z,1.40
2019-01-03T10:24:29.119Z,1.02
2019-01-03T10:25:30.228Z,1.33
2019-01-03T10:26:31.352Z,1.27
2019-01-03T10:27:32.628Z,1.70
2019-01-03T10:28:33.708Z,1.15
2019-01-03T10:29:34.929Z,1.10
2019-01-03T10:30:36.048Z,2.05
2019-01-03T10:31:37.165Z,2.15
2019-01-03T10:32:38.631Z,1.80
2019-01-03T10:33:39.745Z,1.80
2019-01-03T10:34:40.861Z,1.72
2019-01-03T10:35:41.981Z,1.42
2019-01-03T10:36:43.096Z,1.85
2019-01-03T10:37:44.220Z,0.98
2019-01-03T10:38:45.333Z,1.10
2019-01-03T10:39:46.449Z,1.87
2019-01-03T10:40:47.569Z,1.15
2019-01-03T10:41:48.684Z,1.23
2019-01-03T10:42:49.961Z,1.62
2019-01-03T10:43:51.075Z,1.40
2019-01-03T10:44:52.193Z,1.82
2019-01-03T10:45:53.309Z,1.82
2019-01-03T10:46:54.424Z,1.45
2019-01-03T10:47:55.974Z,1.87
2019-01-03T10:48:57.081Z,2.40
2019-01-03T10:49:58.189Z,1.92
2019-01-03T10:50:59.305Z,1.45
2019-01-03T10:52:00.469Z,1.52
2019-01-03T10:53:01.646Z,1.47
2019-01-03T10:54:02.759Z,1.45
2019-01-03T10:55:05.276Z,1.80
2019-01-03T10:56:06.388Z,1.17
2019-01-03T10:57:07.605Z,1.57
2019-01-03T10:58:08.780Z,1.20
2019-01-03T10:59:09.894Z,1.17
2019-01-03T11:00:11.503Z,2.10
2019-01-03T11:01:12.616Z,1.73
2019-01-03T11:02:13.730Z,2.93
2019-01-03T11:03:14.857Z,1.47
2019-01-03T11:04:15.968Z,2.10
2019-01-03T11:05:17.080Z,1.00
2019-01-03T11:06:18.194Z,1.97
2019-01-03T11:07:19.323Z,1.10
2019-01-03T11:08:20.439Z,1.27
2019-01-03T11:09:21.556Z,1.47
2019-01-03T11:10:22.671Z,1.83
2019-01-03T11:11:23.779Z,1.82
2019-01-03T11:12:24.892Z,1.50
2019-01-03T11:13:26.355Z,1.85
2019-01-03T11:14:27.475Z,1.32
2019-01-03T11:15:28.584Z,1.20
2019-01-03T11:16:29.696Z,1.17
2019-01-03T11:17:30.808Z,1.57
2019-01-03T11:18:32.366Z,1.20
2019-01-03T11:19:33.579Z,1.40
2019-01-03T11:20:34.696Z,2.40
2019-01-03T11:21:35.824Z,1.25
2019-01-03T11:22:36.938Z,2.08
2019-01-03T11:23:38.168Z,1.35
2019-01-03T11:24:39.282Z,2.13
2019-01-03T11:25:40.408Z,1.32
2019-01-03T11:26:41.527Z,2.50
2019-01-03T11:27:42.749Z,1.92
2019-01-03T11:28:43.883Z,1.55
2019-01-03T11:29:45.096Z,2.63
2019-01-03T11:30:46.213Z,2.67
2019-01-03T11:31:47.334Z,1.72
2019-01-03T11:32:48.444Z,3.02
2019-01-03T11:33:49.713Z,1.77
2019-01-03T11:34:50.840Z,1.50
2019-01-03T11:35:52.051Z,2.37
2019-01-03T11:36:53.168Z,1.47
2019-01-03T11:37:54.289Z,1.75
2019-01-03T11:38:55.785Z,3.50
2019-01-03T11:39:56.900Z,2.00
2019-01-03T11:40:58.019Z,2.17
2019-01-03T11:41:59.131Z,1.20
2019-01-03T11:43:00.259Z,1.55
2019-01-03T11:44:01.665Z,1.73
2019-01-03T11:45:03.876Z,2.40
2019-01-03T11:46:04.996Z,3.58
2019-01-03T11:47:06.212Z,1.62
2019-01-03T11:48:07.324Z,2.15
2019-01-03T11:49:08.451Z,1.77
2019-01-03T11:50:09.734Z,1.72
2019-01-03T11:51:10.843Z,1.70
2019-01-03T11:52:11.956Z,1.50
2019-01-03T11:53:13.069Z,1.72
2019-01-03T11:54:14.207Z,1.12
2019-01-03T11:55:15.315Z,1.32
2019-01-03T11:56:16.428Z,2.47
2019-01-03T11:57:17.548Z,1.30
2019-01-03T11:58:18.651Z,1.77
2019-01-03T11:59:20.048Z,1.37
2019-01-03T12:00:21.169Z,1.50
2019-01-03T12:01:22.394Z,1.75
2019-01-03T12:02:25.699Z,1.82
2019-01-03T12:03:26.524Z,3.27
2019-01-03T12:04:27.928Z,1.70
2019-01-03T12:05:29.052Z,1.50
2019-01-03T12:06:30.162Z,1.85
2019-01-03T12:07:31.271Z,1.10
2019-01-03T12:08:32.389Z,1.72
2019-01-03T12:09:33.517Z,2.58
2019-01-03T12:10:34.737Z,3.25
2019-01-03T12:11:35.852Z,1.87
2019-01-03T12:12:36.973Z,3.98
2019-01-03T12:13:38.091Z,2.20
2019-01-03T12:14:39.451Z,4.72
2019-01-03T12:15:40.560Z,2.10
2019-01-03T12:16:41.677Z,2.62
2019-01-03T12:17:42.792Z,2.30
2019-01-03T12:18:43.908Z,2.92
2019-01-03T12:19:45.319Z,3.17
2019-01-03T12:20:46.434Z,1.77
2019-01-03T12:21:47.571Z,1.70
2019-01-03T12:22:48.689Z,2.33
2019-01-03T12:23:49.911Z,1.87
2019-01-03T12:24:51.196Z,1.75
2019-01-03T12:25:52.305Z,2.02
2019-01-03T12:26:53.421Z,3.57
2019-01-03T12:27:54.645Z,2.13
2019-01-03T12:28:55.868Z,1.73
2019-01-03T12:29:57.280Z,1.85
2019-01-03T12:30:58.394Z,1.77
2019-01-03T12:31:59.513Z,1.95
2019-01-03T12:33:00.726Z,1.30
2019-01-03T12:34:01.937Z,1.82
2019-01-03T12:35:04.687Z,1.07
2019-01-03T12:36:05.803Z,2.33
2019-01-03T12:37:07.014Z,1.82
2019-01-03T12:38:08.131Z,1.22
2019-01-03T12:39:09.245Z,1.80
2019-01-03T12:40:10.364Z,1.80
2019-01-03T12:41:11.478Z,1.73
2019-01-03T12:42:12.672Z,1.60
2019-01-03T12:43:13.797Z,1.35
2019-01-03T12:44:14.909Z,1.10
2019-01-03T12:45:16.038Z,2.02
2019-01-03T12:46:17.156Z,1.07
2019-01-03T12:47:18.276Z,1.77
2019-01-03T12:48:19.394Z,1.05
2019-01-03T12:49:20.510Z,1.57
2019-01-03T12:50:21.900Z,1.27
2019-01-03T12:51:23.018Z,1.02
2019-01-03T12:52:24.239Z,1.20
2019-01-03T12:53:25.352Z,1.85
2019-01-03T12:54:26.464Z,1.60
2019-01-03T12:55:27.761Z,1.63
2019-01-03T12:56:28.876Z,1.70
2019-01-03T12:57:29.988Z,2.02
2019-01-03T12:58:31.101Z,1.95
2019-01-03T12:59:32.319Z,1.98
2019-01-03T13:00:33.456Z,1.37
2019-01-03T13:01:34.568Z,1.15
2019-01-03T13:02:35.686Z,1.82
2019-01-03T13:03:36.808Z,1.37
2019-01-03T13:04:37.922Z,1.37
2019-01-03T13:05:39.055Z,1.72
2019-01-03T13:06:40.170Z,0.93
2019-01-03T13:07:41.394Z,1.40
2019-01-03T13:08:42.510Z,1.25
2019-01-03T13:09:43.724Z,1.57
2019-01-03T13:10:44.849Z,1.17
2019-01-03T13:11:45.960Z,1.45
2019-01-03T13:12:47.185Z,2.57
2019-01-03T13:13:48.300Z,1.33
2019-01-03T13:14:49.417Z,1.50
2019-01-03T13:15:50.557Z,1.60
2019-01-03T13:16:51.668Z,1.10
2019-01-03T13:17:52.784Z,1.17
2019-01-03T13:18:53.900Z,1.42
2019-01-03T13:19:55.120Z,2.08
2019-01-03T13:20:56.250Z,2.22
2019-01-03T13:21:57.376Z,1.70
2019-01-03T13:22:58.660Z,12.15
2019-01-03T13:23:59.776Z,3.85
2019-01-03T13:25:00.897Z,9.75
2019-01-03T13:26:02.020Z,8.58
2019-01-03T13:27:03.132Z,7.40
2019-01-03T13:28:04.265Z,11.75
2019-01-03T13:29:05.379Z,12.40
2019-01-03T13:30:08.304Z,10.38
2019-01-03T13:31:09.792Z,9.63
2019-01-03T13:32:10.905Z,11.70
2019-01-03T13:33:12.214Z,8.00
2019-01-03T13:34:13.441Z,12.70
2019-01-03T13:35:14.559Z,5.47
2019-01-03T13:36:15.689Z,9.03
2019-01-03T13:37:16.797Z,7.17
2019-01-03T13:38:17.919Z,9.33
2019-01-03T13:39:19.033Z,7.17
2019-01-03T13:40:20.150Z,6.35
2019-01-03T13:41:21.269Z,4.77
2019-01-03T13:42:22.579Z,5.72
2019-01-03T13:43:23.694Z,7.03
2019-01-03T13:44:24.808Z,4.00
2019-01-03T13:45:25.921Z,5.93
2019-01-03T13:46:27.049Z,5.22
2019-01-03T13:47:28.167Z,7.00
2019-01-03T13:48:29.285Z,6.93
2019-01-03T13:49:30.400Z,2.77
2019-01-03T13:50:31.512Z,2.70
2019-01-03T13:51:32.973Z,3.67
2019-01-03T13:52:34.091Z,3.45
2019-01-03T13:53:35.720Z,3.90
2019-01-03T13:54:36.845Z,7.35
2019-01-03T13:55:37.950Z,3.83
2019-01-03T13:56:39.079Z,4.60
2019-01-03T13:57:40.200Z,2.98
2019-01-03T13:58:41.317Z,3.92
2019-01-03T13:59:42.431Z,3.00
2019-01-03T14:00:43.552Z,6.17
2019-01-03T14:01:44.780Z,3.67
2019-01-03T14:02:45.997Z,8.07
2019-01-03T14:03:47.212Z,2.17
2019-01-03T14:04:48.328Z,2.20
2019-01-03T14:05:49.440Z,1.98
2019-01-03T14:06:50.903Z,2.92
2019-01-03T14:07:52.014Z,3.25
2019-01-03T14:08:53.131Z,1.75
2019-01-03T14:09:54.353Z,3.40
2019-01-03T14:10:55.564Z,2.67
2019-01-03T14:11:56.693Z,2.75
2019-01-03T14:12:57.800Z,3.27
2019-01-03T14:13:58.922Z,2.50
2019-01-03T14:15:00.025Z,2.37
2019-01-03T14:16:01.131Z,2.10
2019-01-03T14:17:02.543Z,1.87
2019-01-03T14:18:03.662Z,2.58
2019-01-03T14:19:04.877Z,1.90
2019-01-03T14:20:09.180Z,2.85
2019-01-03T14:21:10.284Z,3.17
2019-01-03T14:22:11.526Z,2.00
2019-01-03T14:23:12.642Z,2.40
2019-01-03T14:24:13.876Z,2.23
2019-01-03T14:25:15.009Z,1.70
2019-01-03T14:26:16.124Z,3.43
2019-01-03T14:27:17.360Z,4.15
2019-01-03T14:28:18.488Z,2.27
2019-01-03T14:29:19.599Z,1.10
2019-01-03T14:30:20.712Z,2.42
2019-01-03T14:31:21.829Z,1.77
2019-01-03T14:32:22.943Z,2.72
2019-01-03T14:33:24.056Z,1.03
2019-01-03T14:34:25.169Z,1.72
2019-01-03T14:35:26.380Z,1.70
2019-01-03T14:36:27.500Z,0.87
2019-01-03T14:37:28.834Z,2.10
2019-01-03T14:38:29.949Z,1.43
2019-01-03T14:39:31.066Z,1.03
2019-01-03T14:40:32.176Z,1.47
2019-01-03T14:41:33.290Z,2.50
2019-01-03T14:42:34.545Z,2.60
2019-01-03T14:43:35.666Z,1.80
2019-01-03T14:44:36.886Z,1.85
2019-01-03T14:45:38.003Z,5.00
2019-01-03T14:46:39.119Z,3.15
2019-01-03T14:47:41.256Z,3.62
2019-01-03T14:48:42.373Z,2.27
2019-01-03T14:49:43.485Z,2.53
2019-01-03T14:50:44.704Z,1.20
2019-01-03T14:51:45.816Z,2.27
2019-01-03T14:52:47.127Z,2.07
2019-01-03T14:53:48.245Z,2.90
2019-01-03T14:54:49.364Z,3.30
2019-01-03T14:55:50.583Z,1.30
2019-01-03T14:56:51.701Z,2.33
2019-01-03T14:57:52.943Z,1.50
2019-01-03T14:58:54.052Z,1.63
2019-01-03T14:59:55.173Z,1.87